Time;durP1;ratioP1;P1;durP2;ratioP2;P2;SDS_P1;SDS_P2;PMS_P1;PMS_P2;Temp;Humidity;BMP_temperature;BMP_pressure;BME280_temperature;BME280_humidity;BME280_pressure;Samples;Min_cycle;Max_cycle;Signal;HPM_P1;HPM_P2
2023/09/24 00:00:10;;;;;;;8.57;7.45;;;12.10;99.90;;;;;;4962087;28;88651;-32
2023/09/24 00:02:36;;;;;;;15.82;7.10;;;12.10;99.90;;;;;;4963723;28;89700;-34
2023/09/24 00:05:04;;;;;;;8.15;7.35;;;12.10;99.90;;;;;;4963856;28;90384;-33
2023/09/24 00:07:30;;;;;;;;;;;12.10;99.90;;;;;;4964900;28;89802;-34
2023/09/24 00:09:59;;;;;;;9.32;7.30;;;12.10;99.90;;;;;;4965094;28;90167;-35
2023/09/24 00:12:25;;;;;;;7.80;7.00;;;12.00;99.90;;;;;;4963547;28;87697;-34
2023/09/24 00:14:51;;;;;;;8.15;7.10;;;12.00;99.90;;;;;;4964148;28;88355;-35
2023/09/24 00:17:17;;;;;;;8.63;6.60;;;12.10;99.90;;;;;;4963092;28;89866;-35
2023/09/24 00:19:42;;;;;;;7.57;6.88;;;12.10;99.90;;;;;;4964102;28;88868;-33
2023/09/24 00:22:10;;;;;;;6.70;6.00;;;12.00;99.90;;;;;;4963539;28;90077;-35
2023/09/24 00:24:36;;;;;;;7.88;6.95;;;12.00;99.90;;;;;;4963595;28;88880;-34
2023/09/24 00:27:01;;;;;;;6.85;5.88;;;11.90;99.90;;;;;;4963056;28;88685;-36
2023/09/24 00:29:27;;;;;;;13.70;7.50;;;12.00;99.90;;;;;;4963716;28;89321;-34
2023/09/24 00:31:53;;;;;;;6.82;6.18;;;11.90;99.90;;;;;;4963452;28;88135;-38
2023/09/24 00:34:18;;;;;;;5.68;5.28;;;11.90;99.90;;;;;;4964487;28;89014;-36
2023/09/24 00:36:44;;;;;;;6.63;6.03;;;11.90;99.90;;;;;;4963188;28;90345;-38
2023/09/24 00:39:10;;;;;;;6.78;5.80;;;11.90;99.90;;;;;;4963164;28;91011;-34
2023/09/24 00:41:36;;;;;;;6.10;5.47;;;11.90;99.90;;;;;;4963685;28;88097;-39
2023/09/24 00:44:02;;;;;;;6.72;6.13;;;11.90;99.90;;;;;;4963513;28;89034;-37
2023/09/24 00:46:30;;;;;;;6.55;5.53;;;11.90;99.90;;;;;;4963569;28;91957;-33
2023/09/24 00:48:57;;;;;;;6.38;5.00;;;11.90;99.90;;;;;;4963349;28;88743;-33
2023/09/24 00:51:26;;;;;;;7.13;4.78;;;11.80;99.90;;;;;;4963251;28;88263;-36
2023/09/24 00:53:53;;;;;;;6.35;5.28;;;11.80;99.90;;;;;;4963433;28;89185;-39
2023/09/24 00:56:20;;;;;;;6.97;4.43;;;11.90;99.90;;;;;;4963466;28;90449;-36
2023/09/24 00:58:50;;;;;;;3.50;2.85;;;11.80;99.90;;;;;;4963163;28;91125;-34
2023/09/24 01:01:16;;;;;;;5.22;4.53;;;11.80;99.90;;;;;;4962212;28;87897;-37
2023/09/24 01:03:43;;;;;;;4.80;4.30;;;11.70;99.90;;;;;;4963169;28;90059;-32
2023/09/24 01:06:08;;;;;;;4.90;4.43;;;11.70;99.90;;;;;;4962598;28;89242;-36
2023/09/24 01:08:35;;;;;;;4.80;4.40;;;11.60;99.90;;;;;;4962790;28;89836;-35
2023/09/24 01:11:02;;;;;;;5.45;4.13;;;11.60;99.90;;;;;;4962235;28;88812;-35
2023/09/24 01:13:39;;;;;;;6.40;4.85;;;11.70;99.90;;;;;;4962668;28;88939;-33
2023/09/24 01:16:06;;;;;;;4.90;4.43;;;11.60;99.90;;;;;;4962376;28;90233;-34
2023/09/24 01:18:34;;;;;;;5.18;4.10;;;11.60;99.90;;;;;;4962821;28;88466;-33
2023/09/24 01:21:00;;;;;;;5.45;4.88;;;11.60;99.90;;;;;;4963105;28;87817;-32
2023/09/24 01:23:29;;;;;;;4.05;3.72;;;11.70;99.90;;;;;;4962954;28;88195;-33
2023/09/24 01:25:56;;;;;;;8.10;4.75;;;11.60;99.90;;;;;;4962766;28;89801;-34
2023/09/24 01:28:21;;;;;;;5.68;4.57;;;11.60;99.90;;;;;;4962547;28;90135;-33
2023/09/24 01:30:47;;;;;;;6.45;5.20;;;11.60;99.90;;;;;;4963055;28;89399;-35
2023/09/24 01:33:13;;;;;;;6.63;5.30;;;11.50;99.90;;;;;;4962439;28;88806;-36
2023/09/24 01:35:39;;;;;;;9.18;5.63;;;11.60;99.90;;;;;;4962907;28;90087;-36
2023/09/24 01:38:05;;;;;;;58.67;8.43;;;11.60;99.90;;;;;;4961417;28;88685;-35
2023/09/24 01:40:38;;;;;;;10.60;5.38;;;11.50;99.90;;;;;;4962778;28;87483;-37
2023/09/24 01:43:05;;;;;;;6.88;5.93;;;11.50;99.90;;;;;;4962554;28;87690;-32
2023/09/24 01:45:34;;;;;;;10.32;6.78;;;11.50;99.90;;;;;;4962724;28;88415;-35
2023/09/24 01:48:00;;;;;;;7.68;5.32;;;11.50;99.90;;;;;;4961686;28;89055;-36
2023/09/24 01:50:28;;;;;;;6.28;5.10;;;11.50;99.90;;;;;;4962804;28;89643;-33
2023/09/24 01:52:59;;;;;;;13.13;6.65;;;11.50;99.90;;;;;;4962203;28;89789;-32
2023/09/24 01:55:26;;;;;;;87.30;9.20;;;11.50;99.90;;;;;;4962910;28;89948;-34
2023/09/24 01:57:53;;;;;;;7.25;5.28;;;11.50;99.90;;;;;;4961834;28;90214;-33
2023/09/24 02:00:26;;;;;;;9.10;5.38;;;11.50;99.90;;;;;;4962804;28;88482;-35
2023/09/24 02:02:58;;;;;;;6.32;4.85;;;11.50;99.90;;;;;;4961691;28;89632;-35
2023/09/24 02:05:24;;;;;;;5.30;4.90;;;11.50;99.90;;;;;;4960334;28;90068;-33
2023/09/24 02:07:50;;;;;;;7.90;5.18;;;11.50;99.90;;;;;;4961897;28;89247;-35
2023/09/24 02:10:20;;;;;;;10.13;6.57;;;11.50;99.90;;;;;;4961385;28;87906;-31
2023/09/24 02:12:46;;;;;;;8.98;6.25;;;11.40;99.90;;;;;;4960892;28;87522;-39
2023/09/24 02:15:15;;;;;;;6.07;5.55;;;11.40;99.90;;;;;;4961245;28;88957;-33
2023/09/24 02:17:41;;;;;;;6.43;5.80;;;11.40;99.90;;;;;;4961764;28;89257;-34
2023/09/24 02:20:11;;;;;;;6.38;5.65;;;11.40;99.90;;;;;;4960481;28;87589;-34
2023/09/24 02:22:36;;;;;;;7.35;6.75;;;11.50;99.90;;;;;;4962301;28;87576;-35
2023/09/24 02:25:06;;;;;;;8.35;6.07;;;11.40;99.90;;;;;;4961518;28;91077;-34
2023/09/24 02:27:34;;;;;;;6.35;5.75;;;11.50;99.90;;;;;;4961222;28;90084;-33
2023/09/24 02:29:59;;;;;;;7.50;5.95;;;11.40;99.90;;;;;;4962299;28;88717;-37
2023/09/24 02:32:27;;;;;;;6.03;5.47;;;11.40;99.90;;;;;;4961267;28;90099;-34
2023/09/24 02:34:53;;;;;;;11.32;6.13;;;11.40;99.90;;;;;;4961058;28;89537;-36
2023/09/24 02:37:20;;;;;;;6.85;6.15;;;11.40;99.90;;;;;;4961321;28;89069;-36
2023/09/24 02:39:47;;;;;;;6.25;5.75;;;11.40;99.90;;;;;;4960230;28;89717;-35
2023/09/24 02:42:12;;;;;;;9.35;5.78;;;11.50;99.90;;;;;;4961854;28;87817;-34
2023/09/24 02:44:38;;;;;;;7.05;6.40;;;11.40;99.90;;;;;;4961787;28;90291;-33
2023/09/24 02:47:07;;;;;;;9.20;6.60;;;11.40;99.90;;;;;;4961036;28;89620;-36
2023/09/24 02:49:32;;;;;;;7.43;6.72;;;11.40;99.90;;;;;;4961718;28;90466;-35
2023/09/24 02:51:58;;;;;;;4.40;3.17;;;11.50;99.90;;;;;;4961147;28;88110;-34
2023/09/24 02:54:23;;;;;;;10.05;7.28;;;11.50;99.90;;;;;;4961438;28;91092;-34
2023/09/24 02:56:50;;;;;;;10.30;7.43;;;11.40;99.90;;;;;;4961430;28;90224;-34
2023/09/24 02:59:15;;;;;;;9.38;8.38;;;11.50;99.90;;;;;;4959715;28;89342;-33
2023/09/24 03:01:46;;;;;;;18.77;6.07;;;11.50;99.90;;;;;;4961700;28;89546;-35
2023/09/24 03:04:12;;;;;;;8.80;7.38;;;11.50;99.90;;;;;;4961528;28;92085;-35
2023/09/24 03:06:38;;;;;;;9.77;8.13;;;11.40;99.90;;;;;;4960815;28;89589;-33
2023/09/24 03:09:06;;;;;;;16.58;5.55;;;11.40;99.90;;;;;;4961592;28;89742;-34
2023/09/24 03:11:32;;;;;;;7.90;7.18;;;11.40;99.90;;;;;;4961261;28;87565;-38
2023/09/24 03:13:58;;;;;;;8.82;7.93;;;11.40;99.90;;;;;;4961268;28;90370;-33
2023/09/24 03:16:26;;;;;;;9.93;7.43;;;11.40;99.90;;;;;;4960602;28;89208;-38
2023/09/24 03:18:51;;;;;;;8.23;7.40;;;11.40;99.90;;;;;;4960959;28;89417;-36
2023/09/24 03:21:17;;;;;;;9.50;8.00;;;11.40;99.90;;;;;;4961469;28;89469;-33
2023/09/24 03:23:43;;;;;;;14.38;8.88;;;11.40;99.90;;;;;;4960951;28;89364;-35
2023/09/24 03:26:14;;;;;;;10.52;8.80;;;11.40;99.90;;;;;;4960665;28;90177;-39
2023/09/24 03:28:39;;;;;;;8.85;7.93;;;11.30;99.90;;;;;;4959317;28;89181;-33
2023/09/24 03:31:12;;;;;;;9.10;7.72;;;11.30;99.90;;;;;;4961372;28;87802;-33
2023/09/24 03:33:38;;;;;;;10.05;7.22;;;11.30;99.90;;;;;;4960706;28;90865;-36
2023/09/24 03:36:05;;;;;;;10.82;7.80;;;11.30;99.90;;;;;;4959832;28;89693;-33
2023/09/24 03:38:31;;;;;;;5.15;4.28;;;11.20;99.90;;;;;;4961078;28;89632;-34
2023/09/24 03:40:57;;;;;;;8.52;7.50;;;11.20;99.90;;;;;;4961122;28;89990;-37
2023/09/24 03:43:23;;;;;;;7.60;6.80;;;11.10;99.90;;;;;;4960490;28;89898;-38
2023/09/24 03:45:48;;;;;;;8.85;7.38;;;11.20;99.90;;;;;;4960619;28;88708;-32
2023/09/24 03:48:14;;;;;;;9.35;8.07;;;11.10;99.90;;;;;;4960636;28;88473;-34
2023/09/24 03:50:39;;;;;;;8.82;7.07;;;11.20;99.90;;;;;;4960687;28;89045;-33
2023/09/24 03:53:05;;;;;;;4.32;3.85;;;11.20;99.90;;;;;;4960090;28;90247;-34
2023/09/24 03:55:31;;;;;;;5.95;4.35;;;11.10;99.90;;;;;;4960021;28;89795;-34
2023/09/24 03:57:56;;;;;;;7.38;6.68;;;11.10;99.90;;;;;;4960841;28;89111;-35
2023/09/24 04:00:22;;;;;;;7.35;6.68;;;11.10;99.90;;;;;;4961055;28;89930;-39
2023/09/24 04:02:49;;;;;;;4.78;4.03;;;11.10;99.90;;;;;;4960394;28;90797;-35
2023/09/24 04:05:21;;;;;;;7.40;6.57;;;11.10;99.90;;;;;;4960086;28;89447;-39
2023/09/24 04:07:52;;;;;;;7.03;6.10;;;11.00;99.90;;;;;;4959940;28;89346;-35
2023/09/24 04:10:20;;;;;;;7.93;6.88;;;11.00;99.90;;;;;;4960419;28;88808;-33
2023/09/24 04:12:49;;;;;;;8.68;7.65;;;11.00;99.90;;;;;;4960963;28;89797;-34
2023/09/24 04:15:18;;;;;;;7.63;6.40;;;11.00;99.90;;;;;;4960536;28;91205;-35
2023/09/24 04:17:46;;;;;;;7.60;6.45;;;11.00;99.90;;;;;;4960391;28;87946;-36
2023/09/24 04:20:15;;;;;;;7.23;6.63;;;11.00;99.90;;;;;;4960203;28;89674;-39
2023/09/24 04:22:44;;;;;;;4.88;3.38;;;11.00;99.90;;;;;;4959772;28;90628;-32
2023/09/24 04:25:11;;;;;;;10.50;4.60;;;11.00;99.90;;;;;;4960507;28;89688;-37
2023/09/24 04:27:38;;;;;;;8.40;7.03;;;10.90;99.90;;;;;;4960271;28;87535;-36
2023/09/24 04:30:07;;;;;;;8.20;6.72;;;10.90;99.90;;;;;;4960100;28;89293;-35
2023/09/24 04:32:34;;;;;;;5.03;3.92;;;10.90;99.90;;;;;;4960050;28;89715;-34
2023/09/24 04:35:00;;;;;;;7.47;6.85;;;10.90;99.90;;;;;;4959305;28;89196;-33
2023/09/24 04:37:26;;;;;;;7.93;7.22;;;10.80;99.90;;;;;;4960660;28;90197;-35
2023/09/24 04:39:52;;;;;;;11.13;8.05;;;10.80;99.90;;;;;;4963180;28;89668;-38
2023/09/24 04:42:18;;;;;;;11.77;7.85;;;10.80;99.90;;;;;;4963079;28;90294;-32
2023/09/24 04:44:43;;;;;;;13.07;9.05;;;10.80;99.90;;;;;;4963144;28;90185;-35
2023/09/24 04:47:09;;;;;;;9.45;8.52;;;10.80;99.90;;;;;;4963624;28;88044;-32
2023/09/24 04:49:34;;;;;;;8.75;7.70;;;10.80;99.90;;;;;;4962808;28;89730;-34
2023/09/24 04:52:01;;;;;;;7.57;5.13;;;10.80;99.90;;;;;;4963044;28;90095;-35
2023/09/24 04:54:27;;;;;;;6.70;4.50;;;10.80;99.90;;;;;;4962913;28;87878;-36
2023/09/24 04:56:53;;;;;;;10.18;8.52;;;10.80;99.90;;;;;;4963362;28;89832;-33
2023/09/24 04:59:19;;;;;;;9.65;8.27;;;10.80;99.90;;;;;;4962977;28;88010;-37
2023/09/24 05:01:44;;;;;;;8.77;7.93;;;10.70;99.90;;;;;;4963241;28;90130;-36
2023/09/24 05:04:10;;;;;;;12.82;8.85;;;10.70;99.90;;;;;;4962778;28;90021;-36
2023/09/24 05:06:35;;;;;;;6.38;5.30;;;10.70;99.90;;;;;;4963163;28;87643;-35
2023/09/24 05:09:01;;;;;;;7.80;6.38;;;10.70;99.90;;;;;;4963234;28;89121;-34
2023/09/24 05:11:27;;;;;;;10.20;4.50;;;10.70;99.90;;;;;;4963522;28;91537;-35
2023/09/24 05:13:52;;;;;;;10.20;8.57;;;10.60;99.90;;;;;;4962879;28;90503;-35
2023/09/24 05:16:19;;;;;;;13.95;9.35;;;10.60;99.90;;;;;;4963567;28;88982;-32
2023/09/24 05:18:45;;;;;;;13.45;10.45;;;10.60;99.90;;;;;;4962968;28;88171;-33
2023/09/24 05:21:15;;;;;;;14.75;10.05;;;10.60;99.90;;;;;;4961577;28;90020;-33
2023/09/24 05:23:41;;;;;;;13.60;9.65;;;10.60;99.90;;;;;;4961442;28;89705;-33
2023/09/24 05:26:14;;;;;;;16.30;10.95;;;10.60;99.90;;;;;;4963009;28;88614;-33
2023/09/24 05:28:40;;;;;;;15.50;9.80;;;10.60;99.90;;;;;;4962266;28;88130;-37
2023/09/24 05:31:06;;;;;;;10.95;9.60;;;10.60;99.90;;;;;;4962532;28;90545;-36
2023/09/24 05:33:32;;;;;;;7.15;6.13;;;10.60;99.90;;;;;;4962267;28;90146;-35
2023/09/24 05:35:58;;;;;;;13.68;9.32;;;10.60;99.90;;;;;;4997476;22;88664;-33
2023/09/24 05:38:26;;;;;;;12.43;10.32;;;10.60;99.90;;;;;;4963077;28;89952;-36
2023/09/24 05:40:52;;;;;;;15.82;11.52;;;10.60;99.90;;;;;;4961535;28;89663;-39
2023/09/24 05:43:19;;;;;;;11.25;6.80;;;10.60;99.90;;;;;;4961371;28;89483;-36
2023/09/24 05:45:50;;;;;;;7.25;6.50;;;10.60;99.90;;;;;;4962991;28;88356;-33
2023/09/24 05:48:16;;;;;;;12.70;9.57;;;10.60;99.90;;;;;;4963233;28;88439;-37
2023/09/24 05:50:43;;;;;;;10.15;8.32;;;10.60;99.90;;;;;;4962128;28;89033;-36
2023/09/24 05:53:13;;;;;;;9.48;5.88;;;10.60;99.90;;;;;;4962115;28;90823;-35
2023/09/24 05:55:39;;;;;;;12.27;6.60;;;10.60;99.90;;;;;;4962222;28;88911;-32
2023/09/24 05:58:06;;;;;;;9.40;6.20;;;10.50;99.90;;;;;;4961981;28;88311;-37
2023/09/24 06:00:36;;;;;;;14.27;11.13;;;10.60;99.90;;;;;;4962978;28;90892;-34
2023/09/24 06:03:02;;;;;;;16.52;10.50;;;10.60;99.90;;;;;;4961205;28;89458;-33
2023/09/24 06:05:28;;;;;;;15.23;11.35;;;10.60;99.90;;;;;;4961837;28;87928;-38
2023/09/24 06:07:54;;;;;;;7.75;6.28;;;10.60;99.90;;;;;;4961555;28;88470;-34
2023/09/24 06:10:20;;;;;;;15.40;10.68;;;10.60;99.90;;;;;;4961017;28;91095;-39
2023/09/24 06:12:46;;;;;;;12.52;11.05;;;10.60;99.90;;;;;;4961787;28;88823;-36
2023/09/24 06:15:13;;;;;;;15.00;12.32;;;10.60;99.90;;;;;;4960671;28;88431;-36
2023/09/24 06:17:39;;;;;;;13.95;12.50;;;10.60;99.90;;;;;;4961638;28;88209;-32
2023/09/24 06:20:05;;;;;;;17.38;12.27;;;10.70;99.90;;;;;;4960791;28;90332;-38
2023/09/24 06:22:31;;;;;;;15.55;12.23;;;10.70;99.90;;;;;;4961599;28;90461;-32
2023/09/24 06:24:57;;;;;;;12.55;11.13;;;10.70;99.90;;;;;;4961088;28;88427;-39
2023/09/24 06:27:23;;;;;;;14.57;11.40;;;10.80;99.90;;;;;;4961102;28;89071;-35
2023/09/24 06:29:48;;;;;;;18.50;12.15;;;10.80;99.90;;;;;;4959057;28;88248;-35
2023/09/24 06:32:14;;;;;;;8.10;6.40;;;10.70;99.90;;;;;;4960642;28;91420;-34
2023/09/24 06:34:40;;;;;;;13.15;11.00;;;10.70;99.90;;;;;;4958275;28;89257;-35
2023/09/24 06:37:06;;;;;;;21.63;13.88;;;10.80;99.90;;;;;;4958344;28;88669;-33
2023/09/24 06:39:33;;;;;;;15.43;12.35;;;10.80;99.90;;;;;;4959317;28;88691;-37
2023/09/24 06:42:00;;;;;;;18.83;13.45;;;10.80;99.90;;;;;;4958769;28;91001;-33
2023/09/24 06:44:26;;;;;;;14.50;12.32;;;10.80;99.90;;;;;;4958639;28;88459;-33
2023/09/24 06:46:52;;;;;;;19.48;13.23;;;10.80;99.90;;;;;;4959123;28;89145;-38
2023/09/24 06:49:19;;;;;;;18.88;12.80;;;10.90;99.90;;;;;;4958117;28;90533;-39
2023/09/24 06:51:45;;;;;;;10.65;8.05;;;10.90;99.90;;;;;;4959602;28;87959;-35
2023/09/24 06:54:11;;;;;;;16.73;13.90;;;11.00;99.90;;;;;;4958917;28;89893;-35
2023/09/24 06:56:37;;;;;;;20.77;14.43;;;11.00;99.90;;;;;;4948753;28;88397;-35
2023/09/24 06:59:09;;;;;;;16.90;15.05;;;11.10;99.90;;;;;;4942803;28;90387;-35
2023/09/24 07:01:37;;;;;;;18.73;16.02;;;11.20;99.90;;;;;;4948258;28;89181;-33
2023/09/24 07:04:06;;;;;;;;;;;11.30;99.90;;;;;;4956619;28;89304;-33
2023/09/24 07:06:32;;;;;;;8.88;7.93;;;11.30;99.90;;;;;;4961879;28;90244;-37
2023/09/24 07:09:01;;;;;;;12.45;7.85;;;11.40;99.90;;;;;;4958705;28;90148;-33
2023/09/24 07:11:34;;;;;;;19.05;13.82;;;11.40;99.90;;;;;;4958914;28;88878;-39
2023/09/24 07:14:00;;;;;;;13.57;9.52;;;11.50;99.90;;;;;;4957750;28;88591;-34
2023/09/24 07:16:27;;;;;;;14.35;8.85;;;11.60;99.90;;;;;;4959543;28;89126;-33
2023/09/24 07:18:53;;;;;;;20.42;14.48;;;11.70;99.90;;;;;;4957369;28;90106;-38
2023/09/24 07:21:25;;;;;;;18.58;14.52;;;11.70;99.90;;;;;;4958183;28;89146;-36
2023/09/24 07:23:52;;;;;;;18.10;14.82;;;11.90;99.90;;;;;;4957915;28;88429;-33
2023/09/24 07:26:18;;;;;;;13.48;9.90;;;12.00;99.90;;;;;;4957639;28;88646;-35
2023/09/24 07:28:44;;;;;;;9.35;7.88;;;12.10;99.90;;;;;;4958875;28;90142;-34
2023/09/24 07:31:15;;;;;;;12.88;11.00;;;12.10;99.90;;;;;;4958688;28;89477;-36
2023/09/24 07:33:42;;;;;;;14.98;13.50;;;12.10;99.90;;;;;;4956653;28;88321;-36
2023/09/24 07:36:08;;;;;;;19.98;13.57;;;12.20;99.90;;;;;;4955607;28;88056;-38
2023/09/24 07:38:34;;;;;;;13.48;8.90;;;12.30;99.90;;;;;;4957551;28;90333;-36
2023/09/24 07:41:00;;;;;;;17.02;13.48;;;12.50;99.90;;;;;;4956875;28;89151;-36
2023/09/24 07:43:26;;;;;;;16.27;13.65;;;12.50;99.90;;;;;;4957223;28;89244;-34
2023/09/24 07:45:51;;;;;;;16.58;14.88;;;12.70;99.90;;;;;;4957232;28;88905;-38
2023/09/24 07:48:17;;;;;;;18.73;14.93;;;12.80;99.90;;;;;;4955935;28;90088;-36
2023/09/24 07:50:52;;;;;;;17.25;13.32;;;12.90;99.90;;;;;;4958220;28;89733;-35
2023/09/24 07:53:18;;;;;;;15.30;13.00;;;13.00;99.90;;;;;;4957748;28;89021;-32
2023/09/24 07:55:44;;;;;;;17.17;12.82;;;13.10;99.90;;;;;;4956810;28;88441;-34
2023/09/24 07:58:10;;;;;;;16.88;14.23;;;13.10;99.90;;;;;;4956444;28;90091;-37
2023/09/24 08:00:37;;;;;;;14.50;12.38;;;13.30;99.90;;;;;;4957750;28;89962;-35
2023/09/24 08:03:02;;;;;;;14.30;11.68;;;13.40;99.90;;;;;;4956089;28;88832;-36
2023/09/24 08:05:28;;;;;;;13.93;8.52;;;13.60;99.90;;;;;;4957922;28;90399;-33
2023/09/24 08:07:54;;;;;;;16.10;12.00;;;13.70;99.90;;;;;;4954849;28;89784;-33
2023/09/24 08:10:19;;;;;;;18.30;12.35;;;13.70;99.90;;;;;;4947691;28;90142;-33
2023/09/24 08:12:45;;;;;;;12.75;9.50;;;13.80;99.90;;;;;;4957919;28;89597;-37
2023/09/24 08:15:10;;;;;;;16.15;11.40;;;13.90;99.90;;;;;;4961673;28;87978;-35
2023/09/24 08:17:36;;;;;;;15.38;8.82;;;14.00;99.90;;;;;;4960217;28;90372;-39
2023/09/24 08:20:02;;;;;;;20.17;12.70;;;14.00;99.90;;;;;;4961719;28;91221;-36
2023/09/24 08:22:27;;;;;;;14.90;11.95;;;14.00;99.90;;;;;;4961437;28;88670;-33
2023/09/24 08:24:53;;;;;;;16.52;11.73;;;14.10;99.90;;;;;;4959676;28;88727;-32
2023/09/24 08:27:18;;;;;;;11.65;10.30;;;14.20;99.90;;;;;;4961702;28;89932;-38
2023/09/24 08:29:44;;;;;;;13.82;11.50;;;14.30;99.90;;;;;;4960845;28;89996;-34
2023/09/24 08:32:10;;;;;;;14.23;11.18;;;14.30;99.90;;;;;;4960085;28;88400;-37
2023/09/24 08:34:35;;;;;;;17.70;11.95;;;14.60;99.90;;;;;;4960079;28;88702;-36
2023/09/24 08:37:02;;;;;;;14.65;11.63;;;14.60;99.90;;;;;;4960308;28;90215;-35
2023/09/24 08:39:28;;;;;;;15.13;10.85;;;14.70;99.90;;;;;;4959868;28;88468;-37
2023/09/24 08:41:54;;;;;;;18.75;11.25;;;14.80;99.90;;;;;;4959526;28;88984;-33
2023/09/24 08:44:24;;;;;;;12.63;9.65;;;14.90;99.90;;;;;;4960275;28;88939;-37
2023/09/24 08:46:51;;;;;;;11.80;9.30;;;15.00;99.90;;;;;;4960821;28;90742;-37
2023/09/24 08:49:18;;;;;;;15.38;9.75;;;15.00;99.90;;;;;;4960024;28;90229;-34
2023/09/24 08:51:46;;;;;;;12.52;9.25;;;15.20;99.90;;;;;;4958530;28;88971;-35
2023/09/24 08:54:12;;;;;;;9.95;8.93;;;15.30;99.90;;;;;;4961067;28;87520;-35
2023/09/24 08:56:38;;;;;;;11.25;8.90;;;15.40;99.90;;;;;;4960396;28;90811;-35
2023/09/24 08:59:04;;;;;;;10.20;9.00;;;15.50;99.90;;;;;;4959853;28;89544;-36
2023/09/24 09:01:30;;;;;;;11.18;8.52;;;15.50;99.90;;;;;;4960503;28;89091;-35
2023/09/24 09:03:55;;;;;;;12.20;9.32;;;15.50;99.90;;;;;;4959959;28;89657;-33
2023/09/24 09:06:34;;;;;;;13.02;8.73;;;15.60;99.90;;;;;;4959970;28;90578;-33
2023/09/24 09:09:00;;;;;;;10.88;8.73;;;15.80;99.90;;;;;;4953496;28;89994;-35
2023/09/24 09:11:45;;;;;;;13.88;7.93;;;15.80;99.90;;;;;;4943739;28;88999;-34
2023/09/24 09:14:11;;;;;;;9.13;7.45;;;15.90;99.90;;;;;;4941086;28;88557;-34
2023/09/24 09:16:55;;;;;;;10.07;8.40;;;16.00;99.90;;;;;;4955174;28;90397;-36
2023/09/24 09:19:21;;;;;;;11.52;7.00;;;16.00;99.90;;;;;;4960320;28;89874;-39
2023/09/24 09:21:47;;;;;;;9.73;7.70;;;16.10;99.90;;;;;;4959737;28;89417;-32
2023/09/24 09:24:23;;;;;;;12.73;7.10;;;16.20;99.90;;;;;;4958995;28;88584;-35
2023/09/24 09:26:56;;;;;;;9.55;6.80;;;16.30;99.90;;;;;;4960308;28;88612;-32
2023/09/24 09:29:27;;;;;;;13.38;6.90;;;16.20;99.90;;;;;;4953918;28;89521;-33
2023/09/24 09:31:54;;;;;;;7.45;6.03;;;16.30;99.90;;;;;;4959855;28;88331;-35
2023/09/24 09:34:20;;;;;;;11.48;6.18;;;16.30;99.90;;;;;;4959680;28;88819;-37
2023/09/24 09:36:47;;;;;;;6.60;6.00;;;16.50;99.90;;;;;;4951278;28;89904;-35
2023/09/24 09:39:12;;;;;;;7.35;6.03;;;16.50;99.90;;;;;;4958266;28;90193;-32
2023/09/24 09:41:42;;;;;;;6.72;5.82;;;16.60;99.90;;;;;;4960530;28;88248;-33
2023/09/24 09:44:08;;;;;;;8.88;5.45;;;16.50;99.90;;;;;;4960222;28;88513;-36
2023/09/24 09:46:37;;;;;;;6.15;5.57;;;16.40;99.90;;;;;;4959262;28;90153;-32
2023/09/24 09:49:07;;;;;;;5.43;4.28;;;16.50;99.90;;;;;;4959509;28;90137;-33
2023/09/24 09:51:48;;;;;;;8.88;3.88;;;16.50;99.90;;;;;;4959489;28;89944;-34
2023/09/24 09:54:15;;;;;;;6.32;3.85;;;16.60;99.90;;;;;;4959144;28;89256;-34
2023/09/24 09:56:41;;;;;;;7.63;4.63;;;16.60;99.90;;;;;;4960058;28;90527;-33
2023/09/24 09:59:08;;;;;;;7.80;4.07;;;16.70;99.90;;;;;;4959750;28;89899;-36
2023/09/24 10:01:35;;;;;;;7.25;3.40;;;16.80;99.90;;;;;;4959375;28;89965;-33
2023/09/24 10:04:03;;;;;;;7.53;3.63;;;16.80;99.90;;;;;;4960010;28;89218;-32
2023/09/24 10:06:37;;;;;;;5.20;3.47;;;16.80;99.90;;;;;;4959586;28;90323;-37
2023/09/24 10:09:34;;;;;;;10.15;3.90;;;16.90;99.90;;;;;;4959239;28;89691;-34
2023/09/24 10:12:01;;;;;;;6.55;3.78;;;17.00;99.90;;;;;;4959653;28;88964;-35
2023/09/24 10:14:36;;;;;;;4.80;4.15;;;16.90;99.90;;;;;;4958463;28;87932;-33
2023/09/24 10:17:21;;;;;;;9.13;3.65;;;17.00;99.90;;;;;;4958451;28;89774;-36
2023/09/24 10:19:49;;;;;;;5.30;3.38;;;17.10;99.90;;;;;;4958606;28;89462;-38
2023/09/24 10:22:26;;;;;;;4.47;3.28;;;17.10;99.90;;;;;;4957998;28;88436;-35
2023/09/24 10:24:52;;;;;;;9.77;3.15;;;17.20;99.90;;;;;;4957858;28;89556;-38
2023/09/24 10:27:30;;;;;;;7.07;3.72;;;17.20;99.90;;;;;;4957892;28;90331;-32
2023/09/24 10:29:56;;;;;;;5.13;2.97;;;17.30;99.90;;;;;;4957248;28;89314;-35
2023/09/24 10:32:23;;;;;;;14.73;3.90;;;17.20;99.90;;;;;;4958022;28;88723;-36
2023/09/24 10:34:55;;;;;;;7.17;3.83;;;17.20;99.90;;;;;;4958546;28;88686;-32
2023/09/24 10:37:26;;;;;;;5.78;3.72;;;17.20;99.90;;;;;;4957774;28;91780;-33
2023/09/24 10:40:09;;;;;;;7.28;4.20;;;17.20;99.90;;;;;;4957319;28;88867;-38
2023/09/24 10:42:37;;;;;;;8.68;3.28;;;17.20;99.90;;;;;;4959415;28;87830;-35
2023/09/24 10:45:10;;;;;;;6.22;3.70;;;17.30;99.90;;;;;;4959191;28;90079;-38
2023/09/24 10:47:38;;;;;;;5.75;3.97;;;17.40;99.90;;;;;;4958132;28;90224;-34
2023/09/24 10:50:20;;;;;;;4.90;3.00;;;17.40;99.90;;;;;;4958189;28;88846;-35
2023/09/24 10:52:56;;;;;;;6.53;3.40;;;17.40;99.90;;;;;;4958377;28;88380;-35
2023/09/24 10:55:29;;;;;;;4.78;3.55;;;17.40;99.90;;;;;;4958582;28;88565;-38
2023/09/24 10:57:59;;;;;;;6.13;3.08;;;17.40;99.90;;;;;;4958220;28;89669;-34
2023/09/24 11:00:27;;;;;;;3.47;3.17;;;17.50;99.90;;;;;;4957910;28;89419;-33
2023/09/24 11:02:54;;;;;;;5.50;2.50;;;17.60;99.90;;;;;;4959518;28;89711;-34
2023/09/24 11:05:20;;;;;;;5.22;2.67;;;17.60;99.90;;;;;;4958161;28;87901;-36
2023/09/24 11:07:45;;;;;;;3.55;2.42;;;17.60;99.90;;;;;;4959080;28;90208;-35
2023/09/24 11:10:16;;;;;;;5.05;2.75;;;17.60;99.90;;;;;;4959504;28;89583;-37
2023/09/24 11:12:57;;;;;;;6.53;3.22;;;17.70;99.90;;;;;;4959330;28;89409;-33
2023/09/24 11:15:24;;;;;;;3.85;2.90;;;17.60;99.90;;;;;;4958109;28;88300;-37
2023/09/24 11:17:50;;;;;;;3.17;2.28;;;17.70;99.90;;;;;;4958701;28;90360;-34
2023/09/24 11:20:20;;;;;;;4.80;2.35;;;17.70;99.90;;;;;;4959159;28;89825;-33
2023/09/24 11:23:10;;;;;;;6.53;2.28;;;17.80;99.90;;;;;;4958597;28;88933;-34
2023/09/24 11:25:39;;;;;;;3.80;2.20;;;17.80;99.90;;;;;;4958335;28;89600;-35
2023/09/24 11:28:05;;;;;;;5.47;2.08;;;17.90;99.90;;;;;;4958626;28;90165;-33
2023/09/24 11:30:42;;;;;;;10.60;2.55;;;18.00;99.90;;;;;;4957997;28;89981;-38
2023/09/24 11:33:21;;;;;;;5.85;2.05;;;18.10;99.90;;;;;;4958808;28;88424;-35
2023/09/24 11:35:50;;;;;;;3.28;1.95;;;18.10;99.90;;;;;;4957978;28;89664;-37
2023/09/24 11:38:35;;;;;;;4.05;2.83;;;18.10;99.90;;;;;;4957386;28;89940;-37
2023/09/24 11:41:09;;;;;;;3.85;2.38;;;18.20;99.90;;;;;;4958738;28;89890;-34
2023/09/24 11:43:36;;;;;;;2.80;1.98;;;18.20;99.90;;;;;;4957373;28;88892;-35
2023/09/24 11:46:01;;;;;;;5.22;1.88;;;18.20;99.90;;;;;;4957246;28;88902;-37
2023/09/24 11:48:29;;;;;;;3.15;2.35;;;18.40;99.90;;;;;;4961318;28;90253;-34
2023/09/24 11:51:03;;;;;;;3.97;2.55;;;18.40;99.90;;;;;;4961934;28;89680;-36
2023/09/24 11:53:29;;;;;;;1.52;1.40;;;18.40;99.90;;;;;;4961267;28;89608;-36
2023/09/24 11:55:57;;;;;;;8.23;2.40;;;18.40;99.90;;;;;;4944589;28;89856;-36
2023/09/24 11:58:26;;;;;;;5.80;2.70;;;18.50;99.90;;;;;;4950044;28;91508;-38
2023/09/24 12:00:56;;;;;;;1.85;1.75;;;18.50;99.90;;;;;;4961098;28;89206;-35
2023/09/24 12:03:22;;;;;;;2.83;1.95;;;18.50;99.90;;;;;;4961761;28;89094;-37
2023/09/24 12:05:48;;;;;;;6.72;2.28;;;18.50;99.90;;;;;;4961666;28;88308;-37
2023/09/24 12:08:14;;;;;;;3.15;2.05;;;18.60;99.90;;;;;;4960819;28;90339;-35
2023/09/24 12:10:41;;;;;;;2.58;2.03;;;18.50;99.90;;;;;;4960082;28;90334;-32
2023/09/24 12:13:10;;;;;;;3.08;2.05;;;18.50;99.90;;;;;;4960883;28;88896;-36
2023/09/24 12:15:37;;;;;;;3.50;1.85;;;18.60;99.90;;;;;;4959605;28;88319;-35
2023/09/24 12:18:05;;;;;;;3.50;1.75;;;18.60;99.90;;;;;;4959391;28;88848;-33
2023/09/24 12:20:32;;;;;;;5.20;1.90;;;18.60;99.90;;;;;;4957915;28;89751;-36
2023/09/24 12:23:03;;;;;;;3.72;2.20;;;18.70;99.90;;;;;;4959483;28;89932;-34
2023/09/24 12:25:29;;;;;;;2.63;2.17;;;18.60;99.90;;;;;;4959814;28;88857;-34
2023/09/24 12:27:55;;;;;;;6.32;1.90;;;18.60;99.90;;;;;;4959589;28;90615;-35
2023/09/24 12:30:22;;;;;;;5.82;2.13;;;18.70;99.90;;;;;;4959778;28;89979;-32
2023/09/24 12:32:48;;;;;;;7.93;2.15;;;18.70;99.90;;;;;;4960179;28;89505;-36
2023/09/24 12:35:13;;;;;;;3.17;1.88;;;18.80;99.90;;;;;;4959801;28;88695;-35
2023/09/24 12:37:40;;;;;;;3.65;2.20;;;18.80;99.90;;;;;;4958961;28;90189;-34
2023/09/24 12:40:08;;;;;;;6.47;2.47;;;18.80;99.90;;;;;;4960208;28;90292;-32
2023/09/24 12:42:41;;;;;;;2.72;2.28;;;18.70;99.90;;;;;;4959813;28;88421;-36